KFMN/FMN METAR and TAF weather

Enter ICAO airport designator
Station Type Date Time Source
KFMN METAR 2021/04/13 22:53 UTC NOAA

KFMN 132253Z 10009KT 10SM -RA FEW060 BKN075 OVC090 16/00 A2983 RMK AO2 RAB23 SLP065 P0000 T01610000


Station Type Date Time Source
KFMN Decoded METAR 2021/04/13 22:53 UTC NOAA

FARMINGTON FOUR CORNERS, NM, United States (KFMN) 36-45N 108-14W 1685M
Apr 13, 2021 - 06:53 PM EDT / 2021.04.13 2253 UTC
Wind: from the E (100 degrees) at 10 MPH (9 KT):0
Visibility: 10 mile(s):0
Sky conditions: overcast
Weather: light rain
Precipitation last hour: A trace
Temperature: 61.0 F (16.1 C)
Dew Point: 32.0 F (0.0 C)
Relative Humidity: 33%
Pressure (altimeter): 29.83 in. Hg (1010 hPa)
ob: KFMN 132253Z 10009KT 10SM -RA FEW060 BKN075 OVC090 16/00 A2983 RMK AO2 RAB23 SLP065 P0000 T01610000
cycle: 23

Station Type Date Time Source
KFMN TAF 2021/04/13 18:28 UTC NOAA

TAF KFMN 131726Z 1318/1418 13013KT P6SM FEW100 BKN200
FM132200 19015G25KT P6SM VCSH BKN120
TEMPO 1322/1402 VRB20G35KT 6SM -RA BLDU OVC100
FM140200 11013KT P6SM BKN090
FM140900 11009KT P6SM FEW100
FM141600 13013KT P6SM FEW120

Example: see airport list